createdAt,value
2023-04-08T00:01:42.620Z,0.79
2023-04-08T00:04:11.268Z,0.79
2023-04-08T00:06:39.699Z,0.83
2023-04-08T00:09:08.073Z,0.86
2023-04-08T00:11:36.354Z,0.87
2023-04-08T00:14:04.893Z,0.93
2023-04-08T00:16:33.575Z,1.00
2023-04-08T00:19:02.096Z,1.00
2023-04-08T00:21:31.753Z,0.96
2023-04-08T00:24:00.092Z,0.92
2023-04-08T00:26:28.309Z,0.92
2023-04-08T00:28:56.456Z,0.95
2023-04-08T00:31:24.977Z,0.87
2023-04-08T00:33:53.586Z,0.87
2023-04-08T00:36:22.727Z,0.89
2023-04-08T00:38:53.866Z,0.87
2023-04-08T00:41:22.468Z,0.86
2023-04-08T00:43:50.932Z,0.83
2023-04-08T00:46:19.101Z,0.85
2023-04-08T00:48:47.880Z,0.88
2023-04-08T00:51:16.729Z,0.91
2023-04-08T00:53:44.987Z,0.85
2023-04-08T00:56:13.452Z,0.93
2023-04-08T00:58:41.755Z,0.91
2023-04-08T01:01:27.952Z,0.92
2023-04-08T01:04:12.851Z,0.87
2023-04-08T01:07:01.448Z,0.80
2023-04-08T01:09:33.852Z,0.80
2023-04-08T01:12:07.030Z,0.79
2023-04-08T01:14:39.299Z,0.74
2023-04-08T01:17:09.011Z,0.73
2023-04-08T01:19:41.691Z,0.72
2023-04-08T01:22:34.515Z,0.78
2023-04-08T01:25:26.372Z,0.79
2023-04-08T01:27:57.785Z,0.75
2023-04-08T01:30:30.594Z,0.76
2023-04-08T01:33:01.836Z,0.75
2023-04-08T01:35:32.368Z,0.76
2023-04-08T01:38:03.176Z,0.78
2023-04-08T01:40:34.735Z,0.80
2023-04-08T01:43:07.787Z,0.85
2023-04-08T01:45:36.049Z,0.86
2023-04-08T01:48:05.696Z,0.83
2023-04-08T01:50:35.398Z,0.88
2023-04-08T01:53:04.967Z,0.95
2023-04-08T01:55:34.921Z,0.90
2023-04-08T01:58:07.523Z,0.90
2023-04-08T02:00:37.193Z,0.84
2023-04-08T02:03:08.147Z,0.78
2023-04-08T02:05:36.682Z,0.75
2023-04-08T02:08:05.021Z,0.79
2023-04-08T02:10:33.258Z,0.75
2023-04-08T02:13:02.506Z,0.68
2023-04-08T02:15:38.277Z,0.69
2023-04-08T02:18:16.238Z,0.76
2023-04-08T02:20:49.362Z,0.73
2023-04-08T02:23:24.572Z,0.76
2023-04-08T02:25:55.934Z,0.74
2023-04-08T02:28:31.408Z,0.70
2023-04-08T02:31:00.913Z,0.73
2023-04-08T02:33:29.588Z,0.71
2023-04-08T02:36:00.033Z,0.72
2023-04-08T02:38:30.801Z,0.71
2023-04-08T02:40:58.959Z,0.75
2023-04-08T02:43:31.903Z,0.81
2023-04-08T02:46:03.831Z,0.80
2023-04-08T02:48:33.480Z,0.82
2023-04-08T02:51:01.744Z,0.82
2023-04-08T02:53:30.540Z,0.81
2023-04-08T02:55:58.724Z,0.77
2023-04-08T02:58:26.762Z,0.75
2023-04-08T03:00:55.214Z,0.79
2023-04-08T03:03:28.179Z,0.75
2023-04-08T03:05:57.752Z,0.73
2023-04-08T03:08:25.978Z,0.71
2023-04-08T03:10:54.524Z,0.68
2023-04-08T03:13:22.826Z,0.68
2023-04-08T03:15:51.186Z,0.67
2023-04-08T03:18:19.358Z,0.68
2023-04-08T03:20:47.458Z,0.69
2023-04-08T03:23:16.449Z,0.72
2023-04-08T03:25:44.570Z,0.71
2023-04-08T03:28:12.636Z,0.77
2023-04-08T03:30:41.038Z,0.85
2023-04-08T03:33:09.271Z,0.86
2023-04-08T03:35:37.799Z,0.89
2023-04-08T03:38:06.206Z,0.88
2023-04-08T03:40:34.299Z,0.83
2023-04-08T03:43:02.611Z,0.90
2023-04-08T03:45:30.824Z,0.87
2023-04-08T03:47:58.999Z,0.87
2023-04-08T03:50:27.152Z,0.84
2023-04-08T03:52:55.330Z,0.86
2023-04-08T03:55:23.596Z,0.90
2023-04-08T03:57:51.797Z,0.93
2023-04-08T04:00:19.909Z,0.97
2023-04-08T04:02:48.076Z,1.02
2023-04-08T04:05:16.350Z,1.06
2023-04-08T04:07:44.477Z,1.08
2023-04-08T04:10:12.749Z,1.08
2023-04-08T04:12:40.922Z,1.12
2023-04-08T04:15:09.255Z,1.12
2023-04-08T04:17:37.394Z,1.07
2023-04-08T04:20:06.550Z,1.01
2023-04-08T04:22:34.703Z,0.99
2023-04-08T04:25:02.819Z,0.98
2023-04-08T04:27:30.985Z,0.96
2023-04-08T04:30:00.535Z,1.00
2023-04-08T04:32:29.100Z,0.99
2023-04-08T04:34:57.374Z,1.02
2023-04-08T04:37:26.460Z,1.03
2023-04-08T04:39:54.691Z,1.01
2023-04-08T04:42:22.792Z,1.01
2023-04-08T04:44:50.908Z,1.08
2023-04-08T04:47:19.016Z,1.11
2023-04-08T04:49:47.549Z,1.04
2023-04-08T04:52:15.878Z,1.08
2023-04-08T04:54:43.994Z,1.10
2023-04-08T04:57:12.205Z,1.15
2023-04-08T04:59:40.575Z,1.20
2023-04-08T05:02:08.730Z,1.18
2023-04-08T05:04:37.148Z,1.15
2023-04-08T05:07:05.781Z,1.16
2023-04-08T05:09:33.917Z,1.26
2023-04-08T05:12:01.980Z,1.23
2023-04-08T05:14:30.913Z,1.21
2023-04-08T05:16:59.134Z,1.31
2023-04-08T05:19:27.196Z,1.32
2023-04-08T05:21:55.482Z,1.30
2023-04-08T05:24:23.767Z,1.36
2023-04-08T05:26:53.375Z,1.28
2023-04-08T05:29:22.108Z,1.31
2023-04-08T05:31:50.566Z,1.33
2023-04-08T05:34:22.987Z,1.38
2023-04-08T05:36:52.274Z,1.40
2023-04-08T05:39:20.913Z,1.45
2023-04-08T05:41:49.128Z,1.52
2023-04-08T05:44:17.172Z,1.51
2023-04-08T05:46:45.966Z,1.60
2023-04-08T05:49:14.466Z,1.63
2023-04-08T05:51:42.654Z,1.65
2023-04-08T05:54:10.974Z,1.59
2023-04-08T05:56:39.040Z,1.44
2023-04-08T05:59:07.246Z,1.33
2023-04-08T06:01:35.648Z,1.46
2023-04-08T06:04:04.011Z,1.51
2023-04-08T06:06:32.374Z,1.53
2023-04-08T06:09:00.484Z,1.49
2023-04-08T06:11:28.732Z,1.58
2023-04-08T06:13:56.941Z,1.58
2023-04-08T06:16:25.160Z,1.70
2023-04-08T06:18:53.826Z,1.75
2023-04-08T06:21:22.143Z,1.77
2023-04-08T06:23:50.291Z,1.86
2023-04-08T06:26:18.376Z,1.87
2023-04-08T06:28:46.512Z,1.95
2023-04-08T06:31:14.672Z,2.00
2023-04-08T06:33:42.698Z,1.95
2023-04-08T06:36:13.308Z,1.89
2023-04-08T06:38:41.375Z,1.93
2023-04-08T06:41:09.476Z,1.99
2023-04-08T06:43:38.022Z,2.06
2023-04-08T06:46:06.472Z,2.20
2023-04-08T06:48:34.772Z,2.47
2023-04-08T06:51:03.141Z,2.70
2023-04-08T06:53:32.875Z,2.81
2023-04-08T06:56:01.240Z,2.73
2023-04-08T06:58:30.039Z,2.71
2023-04-08T07:00:59.959Z,2.80
2023-04-08T07:03:28.410Z,2.92
2023-04-08T07:05:56.616Z,2.87
2023-04-08T07:08:24.616Z,3.05
2023-04-08T07:10:54.038Z,3.25
2023-04-08T07:13:22.339Z,3.50
2023-04-08T07:15:50.458Z,3.53
2023-04-08T07:18:18.674Z,3.43
2023-04-08T07:20:51.272Z,3.56
2023-04-08T07:23:20.128Z,3.62
2023-04-08T07:25:48.393Z,3.60
2023-04-08T07:28:16.628Z,3.66
2023-04-08T07:30:44.738Z,3.59
2023-04-08T07:33:12.950Z,3.79
2023-04-08T07:35:42.128Z,4.24
2023-04-08T07:38:11.697Z,4.23
2023-04-08T07:40:39.804Z,4.56
2023-04-08T07:43:09.355Z,4.73
2023-04-08T07:45:37.423Z,4.92
2023-04-08T07:48:05.697Z,5.05
2023-04-08T07:50:33.811Z,5.05
2023-04-08T07:53:01.852Z,5.03
2023-04-08T07:55:34.515Z,5.07
2023-04-08T07:58:02.711Z,4.98
2023-04-08T08:00:33.153Z,4.72
2023-04-08T08:03:01.585Z,4.81
2023-04-08T08:05:29.832Z,4.95
2023-04-08T08:07:57.869Z,5.07
2023-04-08T08:10:26.580Z,5.07
2023-04-08T08:12:54.751Z,5.11
2023-04-08T08:15:22.932Z,5.33
2023-04-08T08:17:51.181Z,5.64
2023-04-08T08:20:19.399Z,5.85
2023-04-08T08:22:56.646Z,5.94
2023-04-08T08:25:26.410Z,6.02
2023-04-08T08:27:55.530Z,5.94
2023-04-08T08:30:23.702Z,5.79
2023-04-08T08:32:53.016Z,5.82
2023-04-08T08:35:21.284Z,5.99
2023-04-08T08:37:49.478Z,6.20
2023-04-08T08:40:17.989Z,6.41
2023-04-08T08:42:52.692Z,6.38
2023-04-08T08:45:21.072Z,6.42
2023-04-08T08:47:51.247Z,6.29
2023-04-08T08:50:19.845Z,6.15
2023-04-08T08:52:52.449Z,6.08
2023-04-08T08:55:39.428Z,5.97
2023-04-08T08:58:10.280Z,5.77
2023-04-08T09:00:41.051Z,5.82
2023-04-08T09:03:22.596Z,5.83
2023-04-08T09:05:56.687Z,5.73
2023-04-08T09:08:36.986Z,5.74
2023-04-08T09:11:15.956Z,5.77
2023-04-08T09:13:46.007Z,5.78
2023-04-08T09:16:18.033Z,5.81
2023-04-08T09:18:49.230Z,5.78
2023-04-08T09:21:18.308Z,5.71
2023-04-08T09:23:49.264Z,5.67
2023-04-08T09:26:24.338Z,5.61
2023-04-08T09:29:10.902Z,5.63
2023-04-08T09:31:43.096Z,5.47
2023-04-08T09:34:13.403Z,5.54
2023-04-08T09:36:41.721Z,5.49
2023-04-08T09:39:10.541Z,5.35
2023-04-08T09:41:40.554Z,5.40
2023-04-08T09:44:11.167Z,5.45
2023-04-08T09:46:59.531Z,5.36
2023-04-08T09:49:34.218Z,5.35
2023-04-08T09:52:21.648Z,5.29
2023-04-08T09:54:55.931Z,5.31
2023-04-08T09:57:53.205Z,5.32
2023-04-08T10:00:25.365Z,5.35
2023-04-08T10:03:06.761Z,5.41
2023-04-08T10:05:40.902Z,5.36
2023-04-08T10:08:10.554Z,5.28
2023-04-08T10:10:40.788Z,5.34
2023-04-08T10:13:09.584Z,5.34
2023-04-08T10:15:41.582Z,5.24
2023-04-08T10:18:33.244Z,5.32
2023-04-08T10:21:04.531Z,5.43
2023-04-08T10:23:55.605Z,5.32
2023-04-08T10:26:34.787Z,5.38
2023-04-08T10:29:41.608Z,5.32
2023-04-08T10:32:29.583Z,5.28
2023-04-08T10:35:00.518Z,5.39
2023-04-08T10:37:32.570Z,5.33
2023-04-08T10:40:04.715Z,5.33
2023-04-08T10:42:35.609Z,5.37
2023-04-08T10:45:07.563Z,5.44
2023-04-08T10:47:38.591Z,5.54
2023-04-08T10:50:19.533Z,5.58
2023-04-08T10:52:51.505Z,5.62
2023-04-08T10:55:27.570Z,5.67
2023-04-08T10:58:07.519Z,5.76
2023-04-08T11:00:40.521Z,5.84
2023-04-08T11:03:14.384Z,5.91
2023-04-08T11:05:46.520Z,6.00
2023-04-08T11:08:20.579Z,6.06
2023-04-08T11:10:50.581Z,5.97
2023-04-08T11:13:22.513Z,6.00
2023-04-08T11:23:26.626Z,5.82
2023-04-08T11:25:55.815Z,5.82
2023-04-08T11:28:26.111Z,5.82
2023-04-08T11:30:55.599Z,5.82
2023-04-08T11:33:29.297Z,5.80
2023-04-08T11:35:57.664Z,5.84
2023-04-08T11:38:26.114Z,5.82
2023-04-08T11:40:56.135Z,5.88
2023-04-08T11:43:26.514Z,5.95
2023-04-08T11:45:54.988Z,6.02
2023-04-08T11:48:24.025Z,5.97
2023-04-08T11:51:09.032Z,5.99
2023-04-08T11:53:40.047Z,6.07
2023-04-08T11:56:24.648Z,6.12
2023-04-08T11:58:53.407Z,6.13
2023-04-08T12:01:22.135Z,6.24
2023-04-08T12:04:02.633Z,6.25
2023-04-08T12:06:31.915Z,6.26
2023-04-08T12:09:00.239Z,6.27
2023-04-08T12:11:28.548Z,6.29
2023-04-08T12:13:57.525Z,6.27
2023-04-08T12:16:26.070Z,6.26
2023-04-08T12:18:54.305Z,6.18
2023-04-08T12:21:22.656Z,6.14
2023-04-08T12:23:51.177Z,6.16
2023-04-08T12:26:20.234Z,6.20
2023-04-08T12:28:48.363Z,6.19
2023-04-08T12:31:16.616Z,6.27
2023-04-08T12:33:45.167Z,6.34
2023-04-08T12:36:13.900Z,6.35
2023-04-08T12:38:42.147Z,6.41
2023-04-08T12:41:10.824Z,6.48
2023-04-08T12:43:39.549Z,6.55
2023-04-08T12:46:07.854Z,6.56
2023-04-08T12:48:37.096Z,6.59
2023-04-08T12:51:05.483Z,6.56
2023-04-08T12:53:33.551Z,6.49
2023-04-08T12:56:01.940Z,6.55
2023-04-08T12:58:30.091Z,6.61
2023-04-08T13:00:58.435Z,6.56
2023-04-08T13:03:28.577Z,6.58
2023-04-08T13:05:58.630Z,6.59
2023-04-08T13:08:26.926Z,6.54
2023-04-08T13:10:55.814Z,6.47
2023-04-08T13:13:24.324Z,6.36
2023-04-08T13:15:53.179Z,6.29
2023-04-08T13:18:21.354Z,6.26
2023-04-08T13:20:49.460Z,6.22
2023-04-08T13:23:18.231Z,6.17
2023-04-08T13:25:46.629Z,6.11
2023-04-08T13:28:14.698Z,6.06
2023-04-08T13:30:43.027Z,6.03
2023-04-08T13:33:11.355Z,5.96
2023-04-08T13:35:39.368Z,5.87
2023-04-08T13:38:07.604Z,5.77
2023-04-08T13:40:36.262Z,5.64
2023-04-08T13:43:04.516Z,5.56
2023-04-08T13:45:32.837Z,5.56
2023-04-08T13:48:01.140Z,5.52
2023-04-08T13:50:29.498Z,5.49
2023-04-08T13:52:57.754Z,5.50
2023-04-08T13:55:26.377Z,5.42
2023-04-08T13:57:54.461Z,5.40
2023-04-08T14:00:22.872Z,5.43
2023-04-08T14:02:51.799Z,5.47
2023-04-08T14:05:20.064Z,5.53
2023-04-08T14:07:48.194Z,5.53
2023-04-08T14:10:17.651Z,5.56
2023-04-08T14:12:46.847Z,5.55
2023-04-08T14:15:15.041Z,5.54
2023-04-08T14:17:43.557Z,5.45
2023-04-08T14:20:11.940Z,5.49
2023-04-08T14:22:40.489Z,5.50
2023-04-08T14:25:09.351Z,5.49
2023-04-08T14:27:47.566Z,5.41
2023-04-08T14:30:23.112Z,5.41
2023-04-08T14:32:51.191Z,5.43
2023-04-08T14:35:19.442Z,5.45
2023-04-08T14:37:47.464Z,5.46
2023-04-08T14:40:15.605Z,5.39
2023-04-08T14:42:45.637Z,5.43
2023-04-08T14:45:13.820Z,5.41
2023-04-08T14:47:41.985Z,5.37
2023-04-08T14:50:10.499Z,5.34
2023-04-08T14:52:38.770Z,5.27
2023-04-08T14:55:07.972Z,5.25
2023-04-08T14:57:36.329Z,5.25
2023-04-08T15:00:05.570Z,5.18
2023-04-08T15:02:33.934Z,5.12
2023-04-08T15:05:02.503Z,5.07
2023-04-08T15:07:31.316Z,5.08
2023-04-08T15:09:59.564Z,5.03
2023-04-08T15:12:29.376Z,5.04
2023-04-08T15:14:57.771Z,5.01
2023-04-08T15:17:28.893Z,5.05
2023-04-08T15:19:58.931Z,5.05
2023-04-08T15:22:27.404Z,5.08
2023-04-08T15:24:55.697Z,5.07
2023-04-08T15:27:23.888Z,5.09
2023-04-08T15:29:52.757Z,5.11
2023-04-08T15:32:21.272Z,5.10
2023-04-08T15:34:50.949Z,5.03
2023-04-08T15:37:19.223Z,4.97
2023-04-08T15:39:47.423Z,4.94
2023-04-08T15:42:16.298Z,4.92
2023-04-08T15:44:44.583Z,4.93
2023-04-08T15:47:13.573Z,4.94
2023-04-08T15:49:41.943Z,4.96
2023-04-08T15:52:10.233Z,4.94
2023-04-08T15:54:38.501Z,4.95
2023-04-08T15:57:06.880Z,4.92
2023-04-08T15:59:35.270Z,4.90
2023-04-08T16:02:03.517Z,4.90
2023-04-08T16:04:32.028Z,4.91
2023-04-08T16:07:00.508Z,4.89
2023-04-08T16:09:28.884Z,4.89
2023-04-08T16:11:57.059Z,4.91
2023-04-08T16:14:25.651Z,4.90
2023-04-08T16:16:53.849Z,4.90
2023-04-08T16:19:22.813Z,4.91
2023-04-08T16:21:51.298Z,4.89
2023-04-08T16:24:21.009Z,4.87
2023-04-08T16:26:49.350Z,4.86
2023-04-08T16:29:17.594Z,4.86
2023-04-08T16:31:45.959Z,4.86
2023-04-08T16:34:14.434Z,4.84
2023-04-08T16:36:42.713Z,4.83
2023-04-08T16:39:11.195Z,4.85
2023-04-08T16:41:39.778Z,4.82
2023-04-08T16:44:08.057Z,4.80
2023-04-08T16:46:36.948Z,4.80
2023-04-08T16:49:05.136Z,4.78
2023-04-08T16:51:33.507Z,4.79
2023-04-08T16:54:01.804Z,4.78
2023-04-08T16:56:30.071Z,4.77
2023-04-08T16:58:58.447Z,4.79
2023-04-08T17:01:27.403Z,4.79
2023-04-08T17:03:57.313Z,4.74
2023-04-08T17:06:27.375Z,4.70
2023-04-08T17:08:56.371Z,4.67
2023-04-08T17:11:24.692Z,4.66
2023-04-08T17:13:53.277Z,4.62
2023-04-08T17:16:21.730Z,4.64
2023-04-08T17:18:50.849Z,4.64
2023-04-08T17:21:20.355Z,4.62
2023-04-08T17:23:49.078Z,4.58
2023-04-08T17:26:17.503Z,4.57
2023-04-08T17:28:45.976Z,4.53
2023-04-08T17:31:14.188Z,4.51
2023-04-08T17:33:42.329Z,4.52
2023-04-08T17:36:10.939Z,4.52
2023-04-08T17:38:40.236Z,4.52
2023-04-08T17:41:09.214Z,4.52
2023-04-08T17:43:37.542Z,4.50
2023-04-08T17:46:06.120Z,4.49
2023-04-08T17:48:34.473Z,4.46
2023-04-08T17:51:04.659Z,4.42
2023-04-08T17:53:34.089Z,4.41
2023-04-08T17:56:02.566Z,4.38
2023-04-08T17:58:31.256Z,4.34
2023-04-08T18:00:59.855Z,4.24
2023-04-08T18:03:28.184Z,4.20
2023-04-08T18:05:56.907Z,4.15
2023-04-08T18:08:25.630Z,4.11
2023-04-08T18:10:53.780Z,4.10
2023-04-08T18:13:22.052Z,4.09
2023-04-08T18:15:50.736Z,4.09
2023-04-08T18:18:20.446Z,4.07
2023-04-08T18:20:48.728Z,4.05
2023-04-08T18:23:17.614Z,4.04
2023-04-08T18:25:47.133Z,3.98
2023-04-08T18:28:15.915Z,3.91
2023-04-08T18:30:44.630Z,3.91
2023-04-08T18:33:12.882Z,3.88
2023-04-08T18:35:41.155Z,3.91
2023-04-08T18:38:09.542Z,3.95
2023-04-08T18:40:38.333Z,3.95
2023-04-08T18:43:06.611Z,3.93
2023-04-08T18:45:34.885Z,3.94
2023-04-08T18:48:03.174Z,3.93
2023-04-08T18:50:31.443Z,3.93
2023-04-08T18:52:59.840Z,3.91
2023-04-08T18:55:28.203Z,3.92
2023-04-08T18:57:56.587Z,3.90
2023-04-08T19:00:25.175Z,3.88
2023-04-08T19:02:53.912Z,3.85
2023-04-08T19:05:22.255Z,3.81
2023-04-08T19:07:50.732Z,3.83
2023-04-08T19:10:19.005Z,3.82
2023-04-08T19:12:47.381Z,3.79
2023-04-08T19:15:16.063Z,3.78
2023-04-08T19:17:46.421Z,3.79
2023-04-08T19:20:14.877Z,3.79
2023-04-08T19:22:43.257Z,3.76
2023-04-08T19:25:11.733Z,3.78
2023-04-08T19:27:40.117Z,3.78
2023-04-08T19:30:08.809Z,3.74
2023-04-08T19:32:37.236Z,3.74
2023-04-08T19:35:06.592Z,3.73
2023-04-08T19:37:34.994Z,3.73
2023-04-08T19:40:03.350Z,3.75
2023-04-08T19:42:31.733Z,3.75
2023-04-08T19:45:03.488Z,3.74
2023-04-08T19:47:31.890Z,3.73
2023-04-08T19:50:00.255Z,3.73
2023-04-08T19:52:28.634Z,3.76
2023-04-08T19:54:57.552Z,3.77
2023-04-08T19:57:25.803Z,3.75
2023-04-08T19:59:54.824Z,3.73
2023-04-08T20:02:24.954Z,3.71
2023-04-08T20:04:53.604Z,3.68
2023-04-08T20:07:22.022Z,3.68
2023-04-08T20:09:50.695Z,3.73
2023-04-08T20:12:18.951Z,3.77
2023-04-08T20:14:47.549Z,3.76
2023-04-08T20:17:16.840Z,3.73
2023-04-08T20:19:45.225Z,3.69
2023-04-08T20:22:13.809Z,3.73
2023-04-08T20:24:42.498Z,3.72
2023-04-08T20:27:10.995Z,3.69
2023-04-08T20:29:39.360Z,3.72
2023-04-08T20:32:07.687Z,3.67
2023-04-08T20:34:36.431Z,3.66
2023-04-08T20:37:04.920Z,3.64
2023-04-08T20:39:33.298Z,3.64
2023-04-08T20:42:01.982Z,3.64
2023-04-08T20:44:30.190Z,3.64
2023-04-08T20:46:59.726Z,3.61
2023-04-08T20:49:28.148Z,3.56
2023-04-08T20:51:56.833Z,3.52
2023-04-08T20:54:26.242Z,3.45
2023-04-08T20:56:54.521Z,3.45
2023-04-08T20:59:22.794Z,3.47
2023-04-08T21:01:54.114Z,3.47
2023-04-08T21:04:24.780Z,3.49
2023-04-08T21:06:52.991Z,3.46
2023-04-08T21:09:21.541Z,3.45
2023-04-08T21:11:49.724Z,3.51
2023-04-08T21:14:17.992Z,3.54
2023-04-08T21:16:46.471Z,3.49
2023-04-08T21:19:14.854Z,3.45
2023-04-08T21:21:45.703Z,3.46
2023-04-08T21:24:13.984Z,3.41
2023-04-08T21:26:42.455Z,3.38
2023-04-08T21:29:11.759Z,3.36
2023-04-08T21:31:41.373Z,3.37
2023-04-08T21:34:09.847Z,3.38
2023-04-08T21:36:38.125Z,3.39
2023-04-08T21:39:06.724Z,3.39
2023-04-08T21:41:34.989Z,3.41
2023-04-08T21:44:04.014Z,3.46
2023-04-08T21:46:32.259Z,3.50
2023-04-08T21:49:00.743Z,3.51
2023-04-08T21:51:29.337Z,3.48
2023-04-08T21:53:57.611Z,3.41
2023-04-08T21:56:26.090Z,3.36
2023-04-08T21:58:54.368Z,3.29
2023-04-08T22:01:22.784Z,3.25
2023-04-08T22:03:54.064Z,3.20
2023-04-08T22:06:31.640Z,3.14
2023-04-08T22:09:00.693Z,3.08
2023-04-08T22:11:29.129Z,3.08
2023-04-08T22:13:57.764Z,3.11
2023-04-08T22:16:26.365Z,3.15
2023-04-08T22:18:54.597Z,3.17
2023-04-08T22:21:23.967Z,3.14
2023-04-08T22:23:52.313Z,3.15
2023-04-08T22:26:21.557Z,3.11
2023-04-08T22:28:50.051Z,3.17
2023-04-08T22:31:18.784Z,3.16
2023-04-08T22:33:47.467Z,3.15
2023-04-08T22:36:15.645Z,3.14
2023-04-08T22:38:43.937Z,3.12
2023-04-08T22:41:20.879Z,3.08
2023-04-08T22:43:51.028Z,3.02
2023-04-08T22:46:20.365Z,3.00
2023-04-08T22:48:49.722Z,3.06
2023-04-08T22:51:18.215Z,3.03
2023-04-08T22:53:46.901Z,3.03
2023-04-08T22:56:15.004Z,3.06
2023-04-08T22:58:43.135Z,3.08
2023-04-08T23:01:20.977Z,3.10
2023-04-08T23:03:50.079Z,3.09
2023-04-08T23:06:18.126Z,3.08
2023-04-08T23:08:46.449Z,3.10
2023-04-08T23:11:14.613Z,3.09
2023-04-08T23:13:43.017Z,3.10
2023-04-08T23:16:11.508Z,3.12
2023-04-08T23:18:39.646Z,3.13
2023-04-08T23:21:07.930Z,3.12
2023-04-08T23:23:36.171Z,3.07
2023-04-08T23:26:04.351Z,3.05
2023-04-08T23:28:32.732Z,3.02
2023-04-08T23:31:04.964Z,3.04
2023-04-08T23:33:33.216Z,3.11
2023-04-08T23:36:01.368Z,3.12
2023-04-08T23:38:29.526Z,3.05
2023-04-08T23:40:57.818Z,3.00
2023-04-08T23:43:26.086Z,2.99
2023-04-08T23:45:54.232Z,2.96
2023-04-08T23:48:22.653Z,2.95
2023-04-08T23:50:55.547Z,2.95
2023-04-08T23:53:23.756Z,2.85
2023-04-08T23:55:52.085Z,2.83
2023-04-08T23:58:20.219Z,2.82
